createdAt,value
2022-11-19T00:05:15.654Z,99807.08
2022-11-19T00:15:17.293Z,99815.07
2022-11-19T00:25:20.799Z,99824.80
2022-11-19T00:35:22.554Z,99829.77
2022-11-19T00:45:24.214Z,99838.15
2022-11-19T00:55:25.957Z,99835.05
2022-11-19T01:05:27.612Z,99838.17
2022-11-19T01:15:29.383Z,99848.58
2022-11-19T01:25:31.016Z,99857.73
2022-11-19T01:35:34.151Z,99862.04
2022-11-19T01:45:40.025Z,99865.57
2022-11-19T01:55:43.740Z,99859.28
2022-11-19T02:05:46.318Z,99859.15
2022-11-19T02:15:56.934Z,99866.85
2022-11-19T02:26:13.822Z,99862.98
2022-11-19T02:36:21.063Z,99852.21
2022-11-19T02:46:23.825Z,99858.13
2022-11-19T02:56:49.190Z,99854.29
2022-11-19T03:06:50.944Z,99867.72
2022-11-19T03:17:08.988Z,99885.69
2022-11-19T03:27:24.454Z,99896.41
2022-11-19T03:37:30.397Z,99899.81
2022-11-19T03:47:36.622Z,99902.55
2022-11-19T03:57:38.739Z,99916.35
2022-11-19T04:07:40.516Z,99927.62
2022-11-19T04:17:42.314Z,99933.15
2022-11-19T04:27:46.789Z,99935.20
2022-11-19T04:37:48.737Z,99942.78
2022-11-19T04:47:50.365Z,99946.61
2022-11-19T04:57:52.806Z,99952.98
2022-11-19T05:07:54.614Z,99955.97
2022-11-19T05:17:56.378Z,99947.93
2022-11-19T05:27:58.106Z,99951.75
2022-11-19T05:38:00.061Z,99956.66
2022-11-19T05:48:01.776Z,99968.86
2022-11-19T05:58:03.607Z,99977.27
2022-11-19T06:08:05.885Z,99997.12
2022-11-19T06:18:07.591Z,100005.32
2022-11-19T06:28:09.325Z,100015.65
2022-11-19T06:38:11.185Z,100037.75
2022-11-19T06:48:12.798Z,100054.26
2022-11-19T06:58:14.920Z,100064.37
2022-11-19T07:08:16.720Z,100078.08
2022-11-19T07:18:18.351Z,100077.48
2022-11-19T07:28:19.951Z,100082.95
2022-11-19T07:38:21.640Z,100092.90
2022-11-19T07:48:23.325Z,100102.14
2022-11-19T07:58:24.959Z,100105.39
2022-11-19T08:08:26.670Z,100096.16
2022-11-19T08:18:31.348Z,100093.33
2022-11-19T08:28:34.350Z,100104.84
2022-11-19T08:38:38.778Z,100109.37
2022-11-19T08:48:40.911Z,100112.14
2022-11-19T08:58:42.749Z,100120.10
2022-11-19T09:08:45.356Z,100128.88
2022-11-19T09:18:47.182Z,100132.19
2022-11-19T09:28:54.571Z,100137.61
2022-11-19T09:38:57.504Z,100134.46
2022-11-19T09:49:05.384Z,100132.42
2022-11-19T09:59:38.025Z,100134.36
2022-11-19T10:10:12.686Z,100138.37
2022-11-19T10:20:28.183Z,100134.74
2022-11-19T10:30:30.751Z,100130.94
2022-11-19T10:40:48.276Z,100137.70
2022-11-19T10:50:50.962Z,100141.94
2022-11-19T11:00:55.146Z,100150.98
2022-11-19T11:10:58.299Z,100154.92
2022-11-19T11:21:00.128Z,100160.73
2022-11-19T11:31:03.061Z,100157.12
2022-11-19T11:41:53.729Z,100163.73
2022-11-19T11:51:41.488Z,100159.16
2022-11-19T12:01:56.445Z,100158.40
2022-11-19T12:12:06.348Z,100158.91
2022-11-19T12:22:32.627Z,100166.41
2022-11-19T12:32:53.930Z,100166.70
2022-11-19T12:43:17.350Z,100171.27
2022-11-19T12:53:56.346Z,100183.92
2022-11-19T13:04:04.929Z,100189.29
2022-11-19T13:14:34.965Z,100182.39
2022-11-19T13:24:52.645Z,100186.88
2022-11-19T13:35:13.344Z,100192.88
2022-11-19T13:45:16.856Z,100218.23
2022-11-19T13:55:34.745Z,100223.12
2022-11-19T14:05:51.623Z,100226.09
2022-11-19T14:16:51.550Z,100240.72
2022-11-19T14:27:01.915Z,100241.43
2022-11-19T14:37:15.155Z,100238.84
2022-11-19T14:47:23.834Z,100233.82
2022-11-19T14:57:38.915Z,100241.67
2022-11-19T15:08:15.883Z,100240.48
2022-11-19T15:18:41.112Z,100231.61
2022-11-19T15:28:54.423Z,100231.58
2022-11-19T15:39:35.419Z,100242.79
2022-11-19T15:49:44.839Z,100253.89
2022-11-19T15:59:53.167Z,100257.61
2022-11-19T16:09:56.396Z,100266.22
2022-11-19T16:20:10.668Z,100274.95
2022-11-19T16:30:21.795Z,100276.98
2022-11-19T16:40:24.274Z,100290.44
2022-11-19T16:50:43.795Z,100288.06
2022-11-19T17:00:52.366Z,100294.88
2022-11-19T17:11:33.019Z,100283.91
2022-11-19T17:21:35.469Z,100269.14
2022-11-19T17:31:37.292Z,100286.54
2022-11-19T17:41:58.243Z,100303.33
2022-11-19T17:51:59.892Z,100297.41
2022-11-19T18:02:01.674Z,100276.56
2022-11-19T18:12:05.804Z,100297.35
2022-11-19T18:22:12.832Z,100321.89
2022-11-19T18:32:16.176Z,100330.83
2022-11-19T18:42:17.856Z,100330.86
2022-11-19T18:52:19.867Z,100328.37
2022-11-19T19:02:21.591Z,100337.36
2022-11-19T19:12:23.582Z,100332.49
2022-11-19T19:22:25.212Z,100320.23
2022-11-19T19:32:27.507Z,100333.44
2022-11-19T19:42:29.369Z,100343.70
2022-11-19T19:52:31.159Z,100349.59
2022-11-19T20:02:33.226Z,100345.73
2022-11-19T20:12:54.202Z,100351.28
2022-11-19T20:22:57.208Z,100352.36
2022-11-19T20:32:59.243Z,100343.45
2022-11-19T20:43:19.901Z,100342.58
2022-11-19T20:53:24.345Z,100352.95
2022-11-19T21:03:26.293Z,100346.00
2022-11-19T21:13:28.243Z,100332.33
2022-11-19T21:23:30.492Z,100341.15
2022-11-19T21:33:32.250Z,100335.77
2022-11-19T21:44:07.916Z,100343.51
2022-11-19T21:54:09.759Z,100344.78
2022-11-19T22:04:14.978Z,100350.32
2022-11-19T22:14:16.786Z,100343.17
2022-11-19T22:24:18.761Z,100341.21
2022-11-19T22:34:20.456Z,100334.94
2022-11-19T22:44:22.457Z,100332.20
2022-11-19T22:54:25.301Z,100336.80
2022-11-19T23:04:28.964Z,100339.64
2022-11-19T23:14:31.000Z,100327.04
2022-11-19T23:24:32.982Z,100315.79
2022-11-19T23:34:34.754Z,100313.41
2022-11-19T23:44:36.425Z,100310.86
2022-11-19T23:54:38.221Z,100305.60
